createdAt,value
2019-03-30T00:00:23.767Z,22.07
2019-03-30T00:05:26.637Z,15.40
2019-03-30T00:10:28.292Z,12.70
2019-03-30T00:15:30.084Z,13.65
2019-03-30T00:20:31.725Z,10.73
2019-03-30T00:25:33.421Z,15.10
2019-03-30T00:30:36.408Z,14.40
2019-03-30T00:35:38.561Z,15.77
2019-03-30T00:40:42.042Z,15.13
2019-03-30T00:45:44.144Z,10.97
2019-03-30T00:50:45.882Z,16.30
2019-03-30T00:55:47.682Z,16.03
2019-03-30T01:00:49.589Z,19.70
2019-03-30T01:05:54.070Z,20.47
2019-03-30T01:10:56.875Z,16.03
2019-03-30T01:15:58.577Z,20.60
2019-03-30T01:21:00.481Z,24.10
2019-03-30T01:26:03.129Z,16.43
2019-03-30T01:31:05.000Z,24.60
2019-03-30T01:36:06.927Z,23.67
2019-03-30T01:41:08.692Z,26.67
2019-03-30T01:46:10.524Z,27.40
2019-03-30T01:51:12.784Z,30.00
2019-03-30T01:56:17.259Z,24.50
2019-03-30T02:01:21.060Z,26.03
2019-03-30T02:06:23.161Z,28.23
2019-03-30T02:11:30.430Z,24.83
2019-03-30T02:16:32.629Z,23.33
2019-03-30T02:21:34.322Z,29.10
2019-03-30T02:26:36.042Z,26.97
2019-03-30T02:31:38.681Z,21.70
2019-03-30T02:36:40.388Z,26.43
2019-03-30T02:41:42.346Z,28.00
2019-03-30T02:46:44.072Z,32.93
2019-03-30T02:51:45.825Z,36.60
2019-03-30T02:56:47.562Z,25.87
2019-03-30T03:01:49.612Z,24.47
2019-03-30T03:06:52.300Z,31.33
2019-03-30T03:11:54.697Z,21.93
2019-03-30T03:16:56.743Z,21.03
2019-03-30T03:21:58.439Z,32.47
2019-03-30T03:27:00.510Z,21.67
2019-03-30T03:32:02.646Z,25.77
2019-03-30T03:37:04.845Z,23.10
2019-03-30T03:42:07.856Z,30.23
2019-03-30T03:47:10.258Z,21.30
2019-03-30T03:52:13.055Z,27.40
2019-03-30T03:57:18.489Z,25.90
2019-03-30T04:02:22.530Z,29.17
2019-03-30T04:07:26.358Z,30.90
2019-03-30T04:12:29.144Z,30.80
2019-03-30T04:17:30.971Z,23.63
2019-03-30T04:22:36.634Z,28.97
2019-03-30T04:27:39.082Z,29.30
2019-03-30T04:32:43.774Z,58.93
2019-03-30T04:37:46.334Z,34.10
2019-03-30T04:42:48.270Z,33.13
2019-03-30T04:47:50.005Z,34.10
2019-03-30T04:52:51.799Z,26.57
2019-03-30T04:57:57.837Z,32.50
2019-03-30T05:03:04.152Z,25.43
2019-03-30T05:08:06.118Z,25.70
2019-03-30T05:13:08.016Z,26.17
2019-03-30T05:18:09.927Z,46.57
2019-03-30T05:23:12.047Z,30.10
2019-03-30T05:28:14.731Z,35.77
2019-03-30T05:33:17.585Z,28.10
2019-03-30T05:38:19.365Z,32.33
2019-03-30T05:43:22.036Z,34.83
2019-03-30T05:48:24.296Z,33.60
2019-03-30T05:53:27.320Z,32.77
2019-03-30T05:58:29.435Z,39.47
2019-03-30T06:03:31.077Z,33.33
2019-03-30T06:08:32.835Z,38.33
2019-03-30T06:13:34.750Z,37.10
2019-03-30T06:18:36.607Z,36.23
2019-03-30T06:23:38.528Z,39.27
2019-03-30T06:28:40.365Z,29.13
2019-03-30T06:33:43.372Z,41.57
2019-03-30T06:38:45.309Z,49.63
2019-03-30T06:43:47.405Z,36.53
2019-03-30T06:48:49.285Z,30.73
2019-03-30T06:53:51.015Z,39.33
2019-03-30T06:58:52.731Z,35.37
2019-03-30T07:03:54.363Z,44.20
2019-03-30T07:08:56.580Z,39.30
2019-03-30T07:14:01.366Z,51.00
2019-03-30T07:19:03.724Z,51.40
2019-03-30T07:24:05.526Z,52.50
2019-03-30T07:29:08.751Z,71.60
2019-03-30T07:34:10.830Z,55.27
2019-03-30T07:39:12.649Z,63.70
2019-03-30T07:44:15.407Z,50.50
2019-03-30T07:49:17.664Z,57.70
2019-03-30T07:54:19.704Z,45.43
2019-03-30T07:59:23.512Z,58.17
2019-03-30T08:04:28.449Z,55.00
2019-03-30T08:09:32.483Z,70.90
2019-03-30T08:14:34.396Z,77.03
2019-03-30T08:19:36.992Z,72.70
2019-03-30T08:24:55.376Z,80.73
2019-03-30T08:29:57.893Z,79.67
2019-03-30T08:35:00.417Z,97.60
2019-03-30T08:40:02.882Z,87.50
2019-03-30T08:45:06.684Z,82.57
2019-03-30T08:50:09.818Z,81.80
2019-03-30T08:55:12.759Z,116.50
2019-03-30T09:00:18.132Z,99.53
2019-03-30T09:05:19.903Z,94.03
2019-03-30T09:10:21.700Z,121.13
2019-03-30T09:15:23.512Z,119.37
2019-03-30T09:20:25.441Z,141.23
2019-03-30T09:25:28.525Z,151.53
2019-03-30T09:30:31.252Z,118.17
2019-03-30T09:35:33.766Z,138.10
2019-03-30T09:40:35.924Z,146.13
2019-03-30T09:45:39.177Z,144.47
2019-03-30T09:50:41.054Z,167.53
2019-03-30T09:55:42.915Z,148.33
2019-03-30T10:00:44.934Z,159.27
2019-03-30T10:05:47.140Z,152.20
2019-03-30T10:10:49.914Z,153.13
2019-03-30T10:15:51.636Z,172.70
2019-03-30T10:20:53.954Z,170.20
2019-03-30T10:25:55.760Z,148.80
2019-03-30T10:30:58.030Z,162.27
2019-03-30T10:36:00.715Z,157.73
2019-03-30T10:41:02.647Z,153.33
2019-03-30T10:46:04.782Z,141.73
2019-03-30T10:51:06.623Z,147.27
2019-03-30T10:56:09.179Z,149.07
2019-03-30T11:01:16.712Z,130.87
2019-03-30T11:06:19.744Z,121.83
2019-03-30T11:11:30.374Z,140.43
2019-03-30T11:16:35.806Z,135.23
2019-03-30T11:21:37.638Z,144.93
2019-03-30T11:26:43.832Z,144.07
2019-03-30T11:31:50.194Z,138.37
2019-03-30T11:36:55.450Z,147.30
2019-03-30T11:42:04.118Z,144.00
2019-03-30T11:47:07.323Z,141.87
2019-03-30T11:52:09.631Z,140.63
2019-03-30T11:57:20.355Z,142.13
2019-03-30T12:02:28.199Z,141.17
2019-03-30T12:07:28.938Z,139.40
2019-03-30T12:12:31.068Z,135.10
2019-03-30T12:17:32.835Z,146.17
2019-03-30T12:22:35.607Z,135.67
2019-03-30T12:27:37.619Z,135.60
2019-03-30T12:32:39.542Z,138.97
2019-03-30T12:37:41.407Z,121.90
2019-03-30T12:42:50.461Z,119.63
2019-03-30T12:47:53.556Z,140.10
2019-03-30T12:53:00.876Z,123.67
2019-03-30T12:58:03.872Z,142.93
2019-03-30T13:03:06.050Z,136.97
2019-03-30T13:08:08.187Z,132.30
2019-03-30T13:13:11.801Z,141.60
2019-03-30T13:18:14.502Z,137.47
2019-03-30T13:23:22.273Z,151.20
2019-03-30T13:28:31.628Z,156.53
2019-03-30T13:33:33.453Z,148.87
2019-03-30T13:38:44.660Z,162.23
2019-03-30T13:43:48.645Z,156.67
2019-03-30T13:48:51.095Z,170.00
2019-03-30T13:53:53.474Z,176.27
2019-03-30T13:58:55.479Z,179.30
2019-03-30T14:03:57.335Z,182.30
2019-03-30T14:08:59.341Z,208.20
2019-03-30T14:14:18.628Z,186.60
2019-03-30T14:19:26.384Z,196.80
2019-03-30T14:24:32.106Z,193.87
2019-03-30T14:29:43.069Z,205.03
2019-03-30T14:34:45.011Z,198.13
2019-03-30T14:40:00.362Z,210.40
2019-03-30T14:45:02.912Z,225.13
2019-03-30T14:50:07.640Z,193.40
2019-03-30T14:55:09.771Z,197.53
2019-03-30T15:00:12.132Z,199.27
2019-03-30T15:05:14.509Z,179.70
2019-03-30T15:10:21.547Z,150.90
2019-03-30T15:15:27.997Z,172.53
2019-03-30T15:20:30.774Z,131.43
2019-03-30T15:25:32.683Z,138.60
2019-03-30T15:30:34.768Z,135.17
2019-03-30T15:35:36.678Z,119.10
2019-03-30T15:40:40.212Z,126.33
2019-03-30T15:45:43.450Z,122.60
2019-03-30T15:50:45.179Z,130.00
2019-03-30T15:55:48.004Z,129.13
2019-03-30T16:00:53.106Z,134.87
2019-03-30T16:05:55.588Z,148.97
2019-03-30T16:10:57.347Z,155.13
2019-03-30T16:16:06.779Z,151.63
2019-03-30T16:21:16.319Z,119.37
2019-03-30T16:26:21.326Z,112.63
2019-03-30T16:31:25.048Z,128.40
2019-03-30T16:36:28.108Z,126.77
2019-03-30T16:41:35.792Z,123.23
2019-03-30T16:46:42.670Z,129.60
2019-03-30T16:51:44.620Z,125.63
2019-03-30T16:56:46.405Z,124.57
2019-03-30T17:01:48.192Z,131.37
2019-03-30T17:06:50.382Z,141.37
2019-03-30T17:11:52.113Z,122.77
2019-03-30T17:16:53.853Z,102.97
2019-03-30T17:21:56.115Z,98.43
2019-03-30T17:26:57.879Z,94.63
2019-03-30T17:32:00.075Z,101.73
2019-03-30T17:37:09.971Z,100.00
2019-03-30T17:42:12.521Z,98.60
2019-03-30T17:47:14.324Z,104.33
2019-03-30T17:52:16.499Z,105.90
2019-03-30T17:57:18.316Z,116.13
2019-03-30T18:02:22.948Z,121.03
2019-03-30T18:07:23.664Z,149.43
2019-03-30T18:12:25.310Z,128.63
2019-03-30T18:17:27.357Z,156.30
2019-03-30T18:22:29.537Z,164.63
2019-03-30T18:27:31.261Z,206.73
2019-03-30T18:32:33.168Z,182.27
2019-03-30T18:37:35.460Z,192.40
2019-03-30T18:42:37.644Z,190.50
2019-03-30T18:47:39.787Z,205.93
2019-03-30T18:52:42.866Z,226.97
2019-03-30T18:57:44.687Z,211.30
2019-03-30T19:02:46.398Z,219.60
2019-03-30T19:07:48.417Z,208.77
2019-03-30T19:12:50.240Z,209.87
2019-03-30T19:17:52.258Z,198.60
2019-03-30T19:22:54.486Z,232.53
2019-03-30T19:27:56.227Z,200.77
2019-03-30T19:32:58.015Z,174.33
2019-03-30T19:37:59.733Z,177.77
2019-03-30T19:43:01.986Z,176.27
2019-03-30T19:48:03.741Z,169.23
2019-03-30T19:53:06.287Z,154.17
2019-03-30T19:58:08.073Z,129.73
2019-03-30T20:03:09.859Z,120.93
2019-03-30T20:08:12.775Z,103.93
2019-03-30T20:13:14.793Z,93.80
2019-03-30T20:18:16.800Z,114.93
2019-03-30T20:23:18.903Z,99.63
2019-03-30T20:28:20.831Z,80.13
2019-03-30T20:33:22.569Z,90.30
2019-03-30T20:38:25.843Z,84.00
2019-03-30T20:43:28.430Z,81.03
2019-03-30T20:48:31.252Z,76.23
2019-03-30T20:53:33.408Z,84.43
2019-03-30T20:58:35.484Z,80.47
2019-03-30T21:03:37.226Z,95.27
2019-03-30T21:08:39.283Z,92.80
2019-03-30T21:13:41.053Z,73.00
2019-03-30T21:18:42.878Z,71.83
2019-03-30T21:23:45.090Z,76.80
2019-03-30T21:28:46.884Z,109.70
2019-03-30T21:33:48.676Z,84.93
2019-03-30T21:38:50.556Z,72.87
2019-03-30T21:43:53.150Z,64.83
2019-03-30T21:48:55.269Z,80.10
2019-03-30T21:53:57.446Z,60.93
2019-03-30T21:58:59.248Z,64.10
2019-03-30T22:04:01.037Z,59.07
2019-03-30T22:09:20.335Z,57.97
2019-03-30T22:14:22.123Z,51.57
2019-03-30T22:19:23.939Z,40.60
2019-03-30T22:24:25.716Z,46.83
2019-03-30T22:29:27.511Z,38.80
2019-03-30T22:34:29.266Z,41.60
2019-03-30T22:39:30.985Z,24.03
2019-03-30T22:44:32.841Z,32.33
2019-03-30T22:49:34.593Z,34.40
2019-03-30T22:54:36.369Z,36.90
2019-03-30T22:59:38.028Z,31.27
2019-03-30T23:04:39.709Z,30.23
2019-03-30T23:09:41.455Z,29.47
2019-03-30T23:14:44.015Z,25.93
2019-03-30T23:19:45.829Z,25.00
2019-03-30T23:24:47.681Z,25.23
2019-03-30T23:29:49.434Z,39.63
2019-03-30T23:34:51.488Z,26.03
2019-03-30T23:39:53.240Z,35.60
2019-03-30T23:44:55.590Z,27.83
2019-03-30T23:49:57.438Z,28.07
2019-03-30T23:54:59.190Z,27.60
